sensor_id;sensor_type;location;lat;lon;timestamp;P1;durP1;ratioP1;P2;durP2;ratioP2
69917;SDS011;57203;42.672;23.334;2023-03-25T00:00:34;25.0;;;13.8;;
69917;SDS011;57203;42.672;23.334;2023-03-25T00:01:35;29.2;;;16.1;;
69917;SDS011;57203;42.672;23.334;2023-03-25T00:02:35;33.3;;;15.3;;
69917;SDS011;57203;42.672;23.334;2023-03-25T00:03:35;26.8;;;15.9;;
69917;SDS011;57203;42.672;23.334;2023-03-25T00:05:37;26.5;;;12.3;;
69917;SDS011;57203;42.672;23.334;2023-03-25T00:07:36;24.2;;;13.9;;
69917;SDS011;57203;42.672;23.334;2023-03-25T00:08:36;24.2;;;13.5;;
69917;SDS011;57203;42.672;23.334;2023-03-25T00:09:36;22.3;;;13.2;;
69917;SDS011;57203;42.672;23.334;2023-03-25T00:10:36;22.3;;;12.5;;
69917;SDS011;57203;42.672;23.334;2023-03-25T00:11:36;21.5;;;12.4;;
69917;SDS011;57203;42.672;23.334;2023-03-25T00:12:37;23.2;;;12.8;;
69917;SDS011;57203;42.672;23.334;2023-03-25T00:13:37;23.0;;;13.3;;
69917;SDS011;57203;42.672;23.334;2023-03-25T00:14:37;21.9;;;12.7;;
69917;SDS011;57203;42.672;23.334;2023-03-25T00:15:40;25.2;;;12.5;;
69917;SDS011;57203;42.672;23.334;2023-03-25T00:16:37;19.3;;;13.1;;
69917;SDS011;57203;42.672;23.334;2023-03-25T00:17:38;21.3;;;12.7;;
69917;SDS011;57203;42.672;23.334;2023-03-25T00:18:38;19.7;;;12.1;;
69917;SDS011;57203;42.672;23.334;2023-03-25T00:19:38;19.7;;;12.7;;
69917;SDS011;57203;42.672;23.334;2023-03-25T00:21:38;19.2;;;12.3;;
69917;SDS011;57203;42.672;23.334;2023-03-25T00:22:39;19.6;;;12.1;;
69917;SDS011;57203;42.672;23.334;2023-03-25T00:23:39;19.6;;;12.3;;
69917;SDS011;57203;42.672;23.334;2023-03-25T00:24:39;20.5;;;12.2;;
69917;SDS011;57203;42.672;23.334;2023-03-25T00:25:39;22.5;;;12.9;;
69917;SDS011;57203;42.672;23.334;2023-03-25T00:26:39;22.1;;;13.2;;
69917;SDS011;57203;42.672;23.334;2023-03-25T00:27:39;22.1;;;12.3;;
69917;SDS011;57203;42.672;23.334;2023-03-25T00:28:40;21.1;;;12.7;;
69917;SDS011;57203;42.672;23.334;2023-03-25T00:29:40;21.1;;;12.4;;
69917;SDS011;57203;42.672;23.334;2023-03-25T00:30:41;23.2;;;12.6;;
69917;SDS011;57203;42.672;23.334;2023-03-25T00:31:40;23.2;;;12.5;;
69917;SDS011;57203;42.672;23.334;2023-03-25T00:33:40;22.2;;;13.5;;
69917;SDS011;57203;42.672;23.334;2023-03-25T00:34:41;22.5;;;13.4;;
69917;SDS011;57203;42.672;23.334;2023-03-25T00:35:41;23.6;;;12.6;;
69917;SDS011;57203;42.672;23.334;2023-03-25T00:36:41;20.3;;;12.9;;
69917;SDS011;57203;42.672;23.334;2023-03-25T00:39:42;23.9;;;13.0;;
69917;SDS011;57203;42.672;23.334;2023-03-25T00:42:42;23.4;;;14.0;;
69917;SDS011;57203;42.672;23.334;2023-03-25T00:43:43;18.8;;;12.3;;
69917;SDS011;57203;42.672;23.334;2023-03-25T00:44:42;18.8;;;12.5;;
69917;SDS011;57203;42.672;23.334;2023-03-25T00:45:43;19.5;;;12.6;;
69917;SDS011;57203;42.672;23.334;2023-03-25T00:46:43;19.5;;;11.9;;
69917;SDS011;57203;42.672;23.334;2023-03-25T00:47:43;20.1;;;12.3;;
69917;SDS011;57203;42.672;23.334;2023-03-25T00:48:43;18.5;;;12.5;;
69917;SDS011;57203;42.672;23.334;2023-03-25T00:49:43;18.5;;;12.4;;
69917;SDS011;57203;42.672;23.334;2023-03-25T00:50:43;20.0;;;12.1;;
69917;SDS011;57203;42.672;23.334;2023-03-25T00:51:44;18.6;;;12.7;;
69917;SDS011;57203;42.672;23.334;2023-03-25T00:52:44;21.0;;;12.4;;
69917;SDS011;57203;42.672;23.334;2023-03-25T00:53:44;17.7;;;12.2;;
69917;SDS011;57203;42.672;23.334;2023-03-25T00:54:44;19.7;;;12.6;;
69917;SDS011;57203;42.672;23.334;2023-03-25T00:55:44;22.6;;;12.7;;
69917;SDS011;57203;42.672;23.334;2023-03-25T00:56:44;20.4;;;12.9;;
69917;SDS011;57203;42.672;23.334;2023-03-25T00:57:45;20.8;;;12.6;;
69917;SDS011;57203;42.672;23.334;2023-03-25T00:58:45;20.5;;;12.2;;
69917;SDS011;57203;42.672;23.334;2023-03-25T00:59:45;18.9;;;12.0;;
69917;SDS011;57203;42.672;23.334;2023-03-25T01:00:45;18.9;;;12.5;;
69917;SDS011;57203;42.672;23.334;2023-03-25T01:01:45;19.7;;;13.2;;
69917;SDS011;57203;42.672;23.334;2023-03-25T01:02:47;19.7;;;12.9;;
69917;SDS011;57203;42.672;23.334;2023-03-25T01:04:46;19.6;;;13.1;;
69917;SDS011;57203;42.672;23.334;2023-03-25T01:05:46;19.6;;;12.8;;
69917;SDS011;57203;42.672;23.334;2023-03-25T01:06:46;19.5;;;12.6;;
69917;SDS011;57203;42.672;23.334;2023-03-25T01:07:47;20.1;;;12.7;;
69917;SDS011;57203;42.672;23.334;2023-03-25T01:08:47;20.1;;;12.9;;
69917;SDS011;57203;42.672;23.334;2023-03-25T01:09:47;19.9;;;13.0;;
69917;SDS011;57203;42.672;23.334;2023-03-25T01:10:47;19.0;;;12.2;;
69917;SDS011;57203;42.672;23.334;2023-03-25T01:11:47;18.1;;;11.9;;
69917;SDS011;57203;42.672;23.334;2023-03-25T01:12:47;18.4;;;11.7;;
69917;SDS011;57203;42.672;23.334;2023-03-25T01:13:48;20.4;;;12.0;;
69917;SDS011;57203;42.672;23.334;2023-03-25T01:14:48;19.3;;;12.2;;
69917;SDS011;57203;42.672;23.334;2023-03-25T01:15:48;19.3;;;12.7;;
69917;SDS011;57203;42.672;23.334;2023-03-25T01:17:48;20.3;;;13.1;;
69917;SDS011;57203;42.672;23.334;2023-03-25T01:18:48;20.3;;;12.0;;
69917;SDS011;57203;42.672;23.334;2023-03-25T01:19:48;18.6;;;11.9;;
69917;SDS011;57203;42.672;23.334;2023-03-25T01:20:49;19.6;;;12.0;;
69917;SDS011;57203;42.672;23.334;2023-03-25T01:21:49;21.2;;;13.1;;
69917;SDS011;57203;42.672;23.334;2023-03-25T01:22:49;21.2;;;12.2;;
69917;SDS011;57203;42.672;23.334;2023-03-25T01:23:49;20.5;;;12.8;;
69917;SDS011;57203;42.672;23.334;2023-03-25T01:24:49;18.2;;;12.3;;
69917;SDS011;57203;42.672;23.334;2023-03-25T01:25:50;18.2;;;12.8;;
69917;SDS011;57203;42.672;23.334;2023-03-25T01:26:50;19.4;;;12.5;;
69917;SDS011;57203;42.672;23.334;2023-03-25T01:27:50;18.0;;;11.8;;
69917;SDS011;57203;42.672;23.334;2023-03-25T01:28:50;18.0;;;11.1;;
69917;SDS011;57203;42.672;23.334;2023-03-25T01:29:50;14.6;;;11.6;;
69917;SDS011;57203;42.672;23.334;2023-03-25T01:30:50;16.7;;;12.8;;
69917;SDS011;57203;42.672;23.334;2023-03-25T01:31:51;19.1;;;12.1;;
69917;SDS011;57203;42.672;23.334;2023-03-25T01:32:51;18.2;;;11.4;;
69917;SDS011;57203;42.672;23.334;2023-03-25T01:33:51;18.2;;;12.0;;
69917;SDS011;57203;42.672;23.334;2023-03-25T01:34:51;18.2;;;12.2;;
69917;SDS011;57203;42.672;23.334;2023-03-25T01:35:51;18.2;;;12.9;;
69917;SDS011;57203;42.672;23.334;2023-03-25T01:36:51;22.4;;;13.5;;
69917;SDS011;57203;42.672;23.334;2023-03-25T01:37:52;20.1;;;11.8;;
69917;SDS011;57203;42.672;23.334;2023-03-25T01:38:52;20.1;;;11.9;;
69917;SDS011;57203;42.672;23.334;2023-03-25T01:39:52;20.2;;;12.9;;
69917;SDS011;57203;42.672;23.334;2023-03-25T01:40:52;20.2;;;12.5;;
69917;SDS011;57203;42.672;23.334;2023-03-25T01:41:52;17.2;;;12.2;;
69917;SDS011;57203;42.672;23.334;2023-03-25T01:42:53;21.3;;;11.7;;
69917;SDS011;57203;42.672;23.334;2023-03-25T01:45:53;21.5;;;12.5;;
69917;SDS011;57203;42.672;23.334;2023-03-25T01:46:53;17.7;;;12.2;;
69917;SDS011;57203;42.672;23.334;2023-03-25T01:47:56;21.0;;;13.5;;
69917;SDS011;57203;42.672;23.334;2023-03-25T01:48:54;21.6;;;14.0;;
69917;SDS011;57203;42.672;23.334;2023-03-25T01:49:54;21.6;;;12.8;;
69917;SDS011;57203;42.672;23.334;2023-03-25T01:50:54;22.1;;;13.8;;
69917;SDS011;57203;42.672;23.334;2023-03-25T01:51:55;22.1;;;13.5;;
69917;SDS011;57203;42.672;23.334;2023-03-25T01:52:55;22.1;;;14.4;;
69917;SDS011;57203;42.672;23.334;2023-03-25T01:53:54;25.4;;;12.9;;
69917;SDS011;57203;42.672;23.334;2023-03-25T01:54:55;21.4;;;13.1;;
69917;SDS011;57203;42.672;23.334;2023-03-25T01:55:55;21.4;;;13.0;;
69917;SDS011;57203;42.672;23.334;2023-03-25T01:56:55;21.2;;;13.4;;
69917;SDS011;57203;42.672;23.334;2023-03-25T01:57:55;26.0;;;13.6;;
69917;SDS011;57203;42.672;23.334;2023-03-25T01:58:55;26.0;;;14.0;;
69917;SDS011;57203;42.672;23.334;2023-03-25T01:59:55;23.3;;;13.5;;
69917;SDS011;57203;42.672;23.334;2023-03-25T02:00:56;19.7;;;13.2;;
69917;SDS011;57203;42.672;23.334;2023-03-25T02:01:56;19.4;;;13.4;;
69917;SDS011;57203;42.672;23.334;2023-03-25T02:02:57;19.4;;;13.3;;
69917;SDS011;57203;42.672;23.334;2023-03-25T02:03:56;19.8;;;12.2;;
69917;SDS011;57203;42.672;23.334;2023-03-25T02:04:58;18.1;;;12.7;;
69917;SDS011;57203;42.672;23.334;2023-03-25T02:05:57;21.1;;;12.9;;
69917;SDS011;57203;42.672;23.334;2023-03-25T02:06:57;18.5;;;12.7;;
69917;SDS011;57203;42.672;23.334;2023-03-25T02:08:57;20.5;;;12.2;;
69917;SDS011;57203;42.672;23.334;2023-03-25T02:09:58;16.9;;;12.3;;
69917;SDS011;57203;42.672;23.334;2023-03-25T02:10:57;18.0;;;12.5;;
69917;SDS011;57203;42.672;23.334;2023-03-25T02:12:58;17.9;;;12.0;;
69917;SDS011;57203;42.672;23.334;2023-03-25T02:13:59;17.9;;;13.8;;
69917;SDS011;57203;42.672;23.334;2023-03-25T02:14:58;22.7;;;11.8;;
69917;SDS011;57203;42.672;23.334;2023-03-25T02:16:03;19.7;;;10.7;;
69917;SDS011;57203;42.672;23.334;2023-03-25T02:17:00;17.1;;;12.8;;
69917;SDS011;57203;42.672;23.334;2023-03-25T02:18:02;21.6;;;12.4;;
69917;SDS011;57203;42.672;23.334;2023-03-25T02:19:04;19.5;;;12.8;;
69917;SDS011;57203;42.672;23.334;2023-03-25T02:21:08;19.1;;;12.1;;
69917;SDS011;57203;42.672;23.334;2023-03-25T02:22:05;18.3;;;13.1;;
69917;SDS011;57203;42.672;23.334;2023-03-25T02:24:05;20.8;;;12.9;;
69917;SDS011;57203;42.672;23.334;2023-03-25T02:25:05;21.7;;;12.0;;
69917;SDS011;57203;42.672;23.334;2023-03-25T02:26:01;19.8;;;13.4;;
69917;SDS011;57203;42.672;23.334;2023-03-25T02:27:03;16.6;;;12.2;;
69917;SDS011;57203;42.672;23.334;2023-03-25T02:28:02;16.6;;;12.4;;
69917;SDS011;57203;42.672;23.334;2023-03-25T02:29:02;17.8;;;12.3;;
69917;SDS011;57203;42.672;23.334;2023-03-25T02:30:06;19.3;;;12.7;;
69917;SDS011;57203;42.672;23.334;2023-03-25T02:31:08;19.3;;;13.0;;
69917;SDS011;57203;42.672;23.334;2023-03-25T02:32:06;19.6;;;12.5;;
69917;SDS011;57203;42.672;23.334;2023-03-25T02:35:07;19.0;;;13.2;;
69917;SDS011;57203;42.672;23.334;2023-03-25T02:36:08;21.3;;;12.4;;
69917;SDS011;57203;42.672;23.334;2023-03-25T02:38:03;21.3;;;13.5;;
69917;SDS011;57203;42.672;23.334;2023-03-25T02:39:02;18.9;;;12.7;;
69917;SDS011;57203;42.672;23.334;2023-03-25T02:40:03;22.7;;;13.6;;
69917;SDS011;57203;42.672;23.334;2023-03-25T02:41:03;23.1;;;14.4;;
69917;SDS011;57203;42.672;23.334;2023-03-25T02:42:04;24.1;;;14.5;;
69917;SDS011;57203;42.672;23.334;2023-03-25T02:43:04;24.1;;;14.0;;
69917;SDS011;57203;42.672;23.334;2023-03-25T02:44:04;20.9;;;14.7;;
69917;SDS011;57203;42.672;23.334;2023-03-25T02:45:04;23.3;;;17.4;;
69917;SDS011;57203;42.672;23.334;2023-03-25T02:46:04;27.2;;;16.6;;
69917;SDS011;57203;42.672;23.334;2023-03-25T02:47:05;33.1;;;14.1;;
69917;SDS011;57203;42.672;23.334;2023-03-25T02:48:05;23.0;;;14.7;;
69917;SDS011;57203;42.672;23.334;2023-03-25T02:49:04;23.2;;;16.5;;
69917;SDS011;57203;42.672;23.334;2023-03-25T02:50:06;29.0;;;14.0;;
69917;SDS011;57203;42.672;23.334;2023-03-25T02:51:06;21.5;;;13.5;;
69917;SDS011;57203;42.672;23.334;2023-03-25T02:52:06;18.2;;;13.4;;
69917;SDS011;57203;42.672;23.334;2023-03-25T02:53:05;18.2;;;13.6;;
69917;SDS011;57203;42.672;23.334;2023-03-25T02:54:06;20.6;;;12.7;;
69917;SDS011;57203;42.672;23.334;2023-03-25T02:56:07;20.8;;;13.0;;
69917;SDS011;57203;42.672;23.334;2023-03-25T02:57:06;20.8;;;13.1;;
69917;SDS011;57203;42.672;23.334;2023-03-25T02:58:07;17.3;;;12.3;;
69917;SDS011;57203;42.672;23.334;2023-03-25T02:59:06;17.3;;;12.6;;
69917;SDS011;57203;42.672;23.334;2023-03-25T03:00:07;19.6;;;12.7;;
69917;SDS011;57203;42.672;23.334;2023-03-25T03:01:06;19.4;;;12.8;;
69917;SDS011;57203;42.672;23.334;2023-03-25T03:02:07;20.3;;;12.0;;
69917;SDS011;57203;42.672;23.334;2023-03-25T03:03:07;20.3;;;13.1;;
69917;SDS011;57203;42.672;23.334;2023-03-25T03:06:12;21.9;;;12.6;;
69917;SDS011;57203;42.672;23.334;2023-03-25T03:07:07;19.3;;;12.3;;
69917;SDS011;57203;42.672;23.334;2023-03-25T03:08:12;20.1;;;12.8;;
69917;SDS011;57203;42.672;23.334;2023-03-25T03:10:09;22.4;;;13.9;;
69917;SDS011;57203;42.672;23.334;2023-03-25T03:11:10;22.4;;;12.8;;
69917;SDS011;57203;42.672;23.334;2023-03-25T03:12:14;19.5;;;12.7;;
69917;SDS011;57203;42.672;23.334;2023-03-25T03:13:10;19.5;;;12.4;;
69917;SDS011;57203;42.672;23.334;2023-03-25T03:14:12;19.0;;;12.9;;
69917;SDS011;57203;42.672;23.334;2023-03-25T03:15:13;19.0;;;13.6;;
69917;SDS011;57203;42.672;23.334;2023-03-25T03:16:10;22.1;;;14.3;;
69917;SDS011;57203;42.672;23.334;2023-03-25T03:17:11;20.2;;;13.8;;
69917;SDS011;57203;42.672;23.334;2023-03-25T03:18:12;20.7;;;13.9;;
69917;SDS011;57203;42.672;23.334;2023-03-25T03:19:13;20.7;;;13.4;;
69917;SDS011;57203;42.672;23.334;2023-03-25T03:20:12;22.6;;;13.5;;
69917;SDS011;57203;42.672;23.334;2023-03-25T03:21:10;20.7;;;13.8;;
69917;SDS011;57203;42.672;23.334;2023-03-25T03:22:12;20.7;;;14.1;;
69917;SDS011;57203;42.672;23.334;2023-03-25T03:23:11;21.8;;;14.0;;
69917;SDS011;57203;42.672;23.334;2023-03-25T03:24:11;21.8;;;13.5;;
69917;SDS011;57203;42.672;23.334;2023-03-25T03:25:14;20.7;;;13.6;;
69917;SDS011;57203;42.672;23.334;2023-03-25T03:27:11;19.6;;;13.2;;
69917;SDS011;57203;42.672;23.334;2023-03-25T03:28:12;19.6;;;13.5;;
69917;SDS011;57203;42.672;23.334;2023-03-25T03:29:12;18.6;;;12.6;;
69917;SDS011;57203;42.672;23.334;2023-03-25T03:31:13;21.7;;;13.5;;
69917;SDS011;57203;42.672;23.334;2023-03-25T03:32:12;20.2;;;13.7;;
69917;SDS011;57203;42.672;23.334;2023-03-25T03:33:13;20.9;;;13.8;;
69917;SDS011;57203;42.672;23.334;2023-03-25T03:34:13;22.3;;;13.2;;
69917;SDS011;57203;42.672;23.334;2023-03-25T03:35:13;22.3;;;14.0;;
69917;SDS011;57203;42.672;23.334;2023-03-25T03:36:12;20.4;;;13.9;;
69917;SDS011;57203;42.672;23.334;2023-03-25T03:37:13;20.4;;;13.7;;
69917;SDS011;57203;42.672;23.334;2023-03-25T03:38:12;21.4;;;13.9;;
69917;SDS011;57203;42.672;23.334;2023-03-25T03:40:14;20.2;;;14.0;;
69917;SDS011;57203;42.672;23.334;2023-03-25T03:41:14;20.4;;;13.9;;
69917;SDS011;57203;42.672;23.334;2023-03-25T03:42:14;22.0;;;14.6;;
69917;SDS011;57203;42.672;23.334;2023-03-25T03:43:14;22.6;;;14.5;;
69917;SDS011;57203;42.672;23.334;2023-03-25T03:45:15;24.2;;;15.1;;
69917;SDS011;57203;42.672;23.334;2023-03-25T03:46:15;21.7;;;14.9;;
69917;SDS011;57203;42.672;23.334;2023-03-25T03:47:15;23.6;;;14.6;;
69917;SDS011;57203;42.672;23.334;2023-03-25T03:48:16;23.4;;;14.0;;
69917;SDS011;57203;42.672;23.334;2023-03-25T03:49:15;24.3;;;14.6;;
69917;SDS011;57203;42.672;23.334;2023-03-25T03:50:16;20.3;;;14.7;;
69917;SDS011;57203;42.672;23.334;2023-03-25T03:51:16;20.3;;;14.4;;
69917;SDS011;57203;42.672;23.334;2023-03-25T03:52:16;21.8;;;14.2;;
69917;SDS011;57203;42.672;23.334;2023-03-25T03:53:17;21.3;;;15.6;;
69917;SDS011;57203;42.672;23.334;2023-03-25T03:54:16;23.7;;;16.9;;
69917;SDS011;57203;42.672;23.334;2023-03-25T03:55:16;30.4;;;16.2;;
69917;SDS011;57203;42.672;23.334;2023-03-25T03:56:17;25.3;;;16.0;;
69917;SDS011;57203;42.672;23.334;2023-03-25T03:57:17;25.0;;;15.9;;
69917;SDS011;57203;42.672;23.334;2023-03-25T03:58:17;23.8;;;14.8;;
69917;SDS011;57203;42.672;23.334;2023-03-25T03:59:18;23.8;;;14.1;;
69917;SDS011;57203;42.672;23.334;2023-03-25T04:00:17;22.0;;;14.3;;
69917;SDS011;57203;42.672;23.334;2023-03-25T04:01:18;21.9;;;14.2;;
69917;SDS011;57203;42.672;23.334;2023-03-25T04:02:19;21.6;;;14.3;;
69917;SDS011;57203;42.672;23.334;2023-03-25T04:03:18;25.2;;;15.3;;
69917;SDS011;57203;42.672;23.334;2023-03-25T04:04:18;25.2;;;14.2;;
69917;SDS011;57203;42.672;23.334;2023-03-25T04:05:18;25.4;;;15.6;;
69917;SDS011;57203;42.672;23.334;2023-03-25T04:06:18;26.3;;;15.1;;
69917;SDS011;57203;42.672;23.334;2023-03-25T04:07:18;26.9;;;16.6;;
69917;SDS011;57203;42.672;23.334;2023-03-25T04:08:20;26.9;;;16.1;;
69917;SDS011;57203;42.672;23.334;2023-03-25T04:09:19;21.1;;;14.5;;
69917;SDS011;57203;42.672;23.334;2023-03-25T04:10:20;21.1;;;13.3;;
69917;SDS011;57203;42.672;23.334;2023-03-25T04:11:19;21.8;;;14.1;;
69917;SDS011;57203;42.672;23.334;2023-03-25T04:12:19;20.4;;;13.4;;
69917;SDS011;57203;42.672;23.334;2023-03-25T04:13:19;20.1;;;12.0;;
69917;SDS011;57203;42.672;23.334;2023-03-25T04:14:19;21.1;;;14.0;;
69917;SDS011;57203;42.672;23.334;2023-03-25T04:15:19;21.1;;;17.8;;
69917;SDS011;57203;42.672;23.334;2023-03-25T04:16:19;30.9;;;13.9;;
69917;SDS011;57203;42.672;23.334;2023-03-25T04:17:19;23.3;;;12.3;;
69917;SDS011;57203;42.672;23.334;2023-03-25T04:18:20;17.8;;;12.0;;
69917;SDS011;57203;42.672;23.334;2023-03-25T04:19:20;19.0;;;12.6;;
69917;SDS011;57203;42.672;23.334;2023-03-25T04:20:21;19.0;;;12.3;;
69917;SDS011;57203;42.672;23.334;2023-03-25T04:21:20;20.2;;;13.6;;
69917;SDS011;57203;42.672;23.334;2023-03-25T04:22:20;21.2;;;16.0;;
69917;SDS011;57203;42.672;23.334;2023-03-25T04:23:21;28.8;;;16.6;;
69917;SDS011;57203;42.672;23.334;2023-03-25T04:24:21;28.4;;;17.2;;
69917;SDS011;57203;42.672;23.334;2023-03-25T04:25:21;28.4;;;19.3;;
69917;SDS011;57203;42.672;23.334;2023-03-25T04:26:21;30.2;;;17.6;;
69917;SDS011;57203;42.672;23.334;2023-03-25T04:27:21;30.2;;;16.6;;
69917;SDS011;57203;42.672;23.334;2023-03-25T04:28:21;29.0;;;16.3;;
69917;SDS011;57203;42.672;23.334;2023-03-25T04:29:22;23.1;;;14.7;;
69917;SDS011;57203;42.672;23.334;2023-03-25T04:30:22;25.1;;;15.0;;
69917;SDS011;57203;42.672;23.334;2023-03-25T04:31:22;25.1;;;14.6;;
69917;SDS011;57203;42.672;23.334;2023-03-25T04:32:22;24.1;;;13.8;;
69917;SDS011;57203;42.672;23.334;2023-03-25T04:33:22;24.0;;;13.7;;
69917;SDS011;57203;42.672;23.334;2023-03-25T04:34:23;24.0;;;12.7;;
69917;SDS011;57203;42.672;23.334;2023-03-25T04:35:23;19.6;;;12.1;;
69917;SDS011;57203;42.672;23.334;2023-03-25T04:36:23;21.0;;;12.9;;
69917;SDS011;57203;42.672;23.334;2023-03-25T04:37:23;19.0;;;12.8;;
69917;SDS011;57203;42.672;23.334;2023-03-25T04:38:23;18.8;;;12.7;;
69917;SDS011;57203;42.672;23.334;2023-03-25T04:40:24;19.8;;;12.9;;
69917;SDS011;57203;42.672;23.334;2023-03-25T04:42:24;20.6;;;13.8;;
69917;SDS011;57203;42.672;23.334;2023-03-25T04:43:24;22.1;;;13.9;;
69917;SDS011;57203;42.672;23.334;2023-03-25T04:44:24;22.3;;;14.2;;
69917;SDS011;57203;42.672;23.334;2023-03-25T04:45:24;25.9;;;15.0;;
69917;SDS011;57203;42.672;23.334;2023-03-25T04:46:24;25.9;;;14.3;;
69917;SDS011;57203;42.672;23.334;2023-03-25T04:47:25;23.0;;;15.1;;
69917;SDS011;57203;42.672;23.334;2023-03-25T04:48:25;24.3;;;15.7;;
69917;SDS011;57203;42.672;23.334;2023-03-25T04:49:25;24.3;;;15.2;;
69917;SDS011;57203;42.672;23.334;2023-03-25T04:50:26;28.0;;;16.5;;
69917;SDS011;57203;42.672;23.334;2023-03-25T04:51:25;29.4;;;14.4;;
69917;SDS011;57203;42.672;23.334;2023-03-25T04:52:26;27.4;;;13.4;;
69917;SDS011;57203;42.672;23.334;2023-03-25T04:53:26;20.9;;;15.5;;
69917;SDS011;57203;42.672;23.334;2023-03-25T04:54:26;27.0;;;13.2;;
69917;SDS011;57203;42.672;23.334;2023-03-25T04:55:26;20.2;;;12.9;;
69917;SDS011;57203;42.672;23.334;2023-03-25T04:57:26;21.2;;;13.5;;
69917;SDS011;57203;42.672;23.334;2023-03-25T04:58:27;22.0;;;13.4;;
69917;SDS011;57203;42.672;23.334;2023-03-25T04:59:27;22.0;;;12.9;;
69917;SDS011;57203;42.672;23.334;2023-03-25T05:00:27;21.2;;;12.1;;
69917;SDS011;57203;42.672;23.334;2023-03-25T05:01:27;19.0;;;12.9;;
69917;SDS011;57203;42.672;23.334;2023-03-25T05:02:27;17.1;;;11.9;;
69917;SDS011;57203;42.672;23.334;2023-03-25T05:03:27;17.1;;;13.0;;
69917;SDS011;57203;42.672;23.334;2023-03-25T05:04:28;21.3;;;13.8;;
69917;SDS011;57203;42.672;23.334;2023-03-25T05:05:28;21.3;;;15.7;;
69917;SDS011;57203;42.672;23.334;2023-03-25T05:06:28;26.4;;;15.4;;
69917;SDS011;57203;42.672;23.334;2023-03-25T05:07:28;23.0;;;13.9;;
69917;SDS011;57203;42.672;23.334;2023-03-25T05:08:28;23.0;;;11.4;;
69917;SDS011;57203;42.672;23.334;2023-03-25T05:09:28;18.7;;;12.3;;
69917;SDS011;57203;42.672;23.334;2023-03-25T05:10:29;20.0;;;11.3;;
69917;SDS011;57203;42.672;23.334;2023-03-25T05:11:29;16.8;;;10.5;;
69917;SDS011;57203;42.672;23.334;2023-03-25T05:12:29;16.0;;;11.8;;
69917;SDS011;57203;42.672;23.334;2023-03-25T05:13:29;17.6;;;10.8;;
69917;SDS011;57203;42.672;23.334;2023-03-25T05:14:29;18.1;;;11.2;;
69917;SDS011;57203;42.672;23.334;2023-03-25T05:15:30;18.1;;;10.2;;
69917;SDS011;57203;42.672;23.334;2023-03-25T05:16:30;15.0;;;10.3;;
69917;SDS011;57203;42.672;23.334;2023-03-25T05:17:30;14.5;;;11.7;;
69917;SDS011;57203;42.672;23.334;2023-03-25T05:19:30;18.6;;;11.2;;
69917;SDS011;57203;42.672;23.334;2023-03-25T05:20:30;16.4;;;10.4;;
69917;SDS011;57203;42.672;23.334;2023-03-25T05:21:31;16.9;;;10.1;;
69917;SDS011;57203;42.672;23.334;2023-03-25T05:22:31;16.9;;;10.0;;
69917;SDS011;57203;42.672;23.334;2023-03-25T05:23:31;15.5;;;10.4;;
69917;SDS011;57203;42.672;23.334;2023-03-25T05:24:31;18.5;;;10.3;;
69917;SDS011;57203;42.672;23.334;2023-03-25T05:25:31;18.5;;;10.5;;
69917;SDS011;57203;42.672;23.334;2023-03-25T05:26:31;17.6;;;10.0;;
69917;SDS011;57203;42.672;23.334;2023-03-25T05:27:32;14.9;;;10.6;;
69917;SDS011;57203;42.672;23.334;2023-03-25T05:29:32;19.8;;;11.0;;
69917;SDS011;57203;42.672;23.334;2023-03-25T05:30:32;19.8;;;11.8;;
69917;SDS011;57203;42.672;23.334;2023-03-25T05:31:32;19.7;;;11.0;;
69917;SDS011;57203;42.672;23.334;2023-03-25T05:32:32;16.7;;;10.7;;
69917;SDS011;57203;42.672;23.334;2023-03-25T05:33:33;16.2;;;11.1;;
69917;SDS011;57203;42.672;23.334;2023-03-25T05:34:33;16.2;;;11.5;;
69917;SDS011;57203;42.672;23.334;2023-03-25T05:35:33;21.1;;;11.1;;
69917;SDS011;57203;42.672;23.334;2023-03-25T05:36:33;21.1;;;10.5;;
69917;SDS011;57203;42.672;23.334;2023-03-25T05:37:33;18.5;;;10.8;;
69917;SDS011;57203;42.672;23.334;2023-03-25T05:38:33;16.1;;;12.4;;
69917;SDS011;57203;42.672;23.334;2023-03-25T05:39:34;18.3;;;11.5;;
69917;SDS011;57203;42.672;23.334;2023-03-25T05:40:34;18.3;;;11.3;;
69917;SDS011;57203;42.672;23.334;2023-03-25T05:41:34;19.6;;;9.8;;
69917;SDS011;57203;42.672;23.334;2023-03-25T05:42:34;20.2;;;12.0;;
69917;SDS011;57203;42.672;23.334;2023-03-25T05:43:34;20.2;;;11.1;;
69917;SDS011;57203;42.672;23.334;2023-03-25T05:44:34;16.8;;;10.9;;
69917;SDS011;57203;42.672;23.334;2023-03-25T05:46:35;16.8;;;11.3;;
69917;SDS011;57203;42.672;23.334;2023-03-25T05:47:35;18.2;;;12.0;;
69917;SDS011;57203;42.672;23.334;2023-03-25T05:48:35;30.4;;;11.0;;
69917;SDS011;57203;42.672;23.334;2023-03-25T05:49:35;31.8;;;12.3;;
69917;SDS011;57203;42.672;23.334;2023-03-25T05:50:36;31.8;;;10.7;;
69917;SDS011;57203;42.672;23.334;2023-03-25T05:51:36;30.4;;;9.9;;
69917;SDS011;57203;42.672;23.334;2023-03-25T05:52:36;19.0;;;9.7;;
69917;SDS011;57203;42.672;23.334;2023-03-25T05:53:36;14.7;;;10.7;;
69917;SDS011;57203;42.672;23.334;2023-03-25T05:54:36;20.9;;;10.5;;
69917;SDS011;57203;42.672;23.334;2023-03-25T05:55:36;20.9;;;10.6;;
69917;SDS011;57203;42.672;23.334;2023-03-25T05:56:37;17.4;;;9.4;;
69917;SDS011;57203;42.672;23.334;2023-03-25T05:57:37;17.7;;;10.5;;
69917;SDS011;57203;42.672;23.334;2023-03-25T05:58:37;17.7;;;8.4;;
69917;SDS011;57203;42.672;23.334;2023-03-25T05:59:37;15.1;;;9.3;;
69917;SDS011;57203;42.672;23.334;2023-03-25T06:00:37;15.1;;;8.8;;
69917;SDS011;57203;42.672;23.334;2023-03-25T06:01:37;15.2;;;9.4;;
69917;SDS011;57203;42.672;23.334;2023-03-25T06:02:38;14.0;;;9.0;;
69917;SDS011;57203;42.672;23.334;2023-03-25T06:03:38;14.2;;;9.2;;
69917;SDS011;57203;42.672;23.334;2023-03-25T06:04:38;12.5;;;8.9;;
69917;SDS011;57203;42.672;23.334;2023-03-25T06:05:38;15.3;;;8.4;;
69917;SDS011;57203;42.672;23.334;2023-03-25T06:07:39;12.3;;;9.7;;
69917;SDS011;57203;42.672;23.334;2023-03-25T06:08:39;15.9;;;9.3;;
69917;SDS011;57203;42.672;23.334;2023-03-25T06:09:40;18.6;;;8.3;;
69917;SDS011;57203;42.672;23.334;2023-03-25T06:10:39;17.5;;;8.1;;
69917;SDS011;57203;42.672;23.334;2023-03-25T06:11:39;12.2;;;7.7;;
69917;SDS011;57203;42.672;23.334;2023-03-25T06:12:40;11.6;;;7.3;;
69917;SDS011;57203;42.672;23.334;2023-03-25T06:13:40;11.8;;;7.8;;
69917;SDS011;57203;42.672;23.334;2023-03-25T06:14:40;11.2;;;6.7;;
69917;SDS011;57203;42.672;23.334;2023-03-25T06:15:40;9.4;;;6.1;;
69917;SDS011;57203;42.672;23.334;2023-03-25T06:16:40;8.2;;;6.2;;
69917;SDS011;57203;42.672;23.334;2023-03-25T06:17:40;9.3;;;5.8;;
69917;SDS011;57203;42.672;23.334;2023-03-25T06:18:41;7.6;;;6.4;;
69917;SDS011;57203;42.672;23.334;2023-03-25T06:20:41;9.7;;;6.9;;
69917;SDS011;57203;42.672;23.334;2023-03-25T06:22:42;10.6;;;7.2;;
69917;SDS011;57203;42.672;23.334;2023-03-25T06:23:42;10.2;;;8.2;;
69917;SDS011;57203;42.672;23.334;2023-03-25T06:24:42;14.8;;;9.4;;
69917;SDS011;57203;42.672;23.334;2023-03-25T06:25:42;14.8;;;9.6;;
69917;SDS011;57203;42.672;23.334;2023-03-25T06:26:42;19.0;;;9.9;;
69917;SDS011;57203;42.672;23.334;2023-03-25T06:27:43;15.4;;;9.1;;
69917;SDS011;57203;42.672;23.334;2023-03-25T06:28:43;13.6;;;8.9;;
69917;SDS011;57203;42.672;23.334;2023-03-25T06:29:43;11.8;;;9.1;;
69917;SDS011;57203;42.672;23.334;2023-03-25T06:30:43;12.2;;;8.4;;
69917;SDS011;57203;42.672;23.334;2023-03-25T06:31:43;13.1;;;9.0;;
69917;SDS011;57203;42.672;23.334;2023-03-25T06:32:43;13.1;;;9.2;;
69917;SDS011;57203;42.672;23.334;2023-03-25T06:33:44;13.5;;;8.5;;